createdAt,value
2022-08-04T00:03:28.222Z,25.50
2022-08-04T00:08:55.611Z,25.40
2022-08-04T00:14:11.700Z,25.20
2022-08-04T00:19:18.297Z,25.30
2022-08-04T00:24:22.055Z,25.20
2022-08-04T00:29:25.125Z,25.20
2022-08-04T00:34:29.266Z,25.40
2022-08-04T00:39:32.683Z,24.70
2022-08-04T00:44:46.756Z,25.10
2022-08-04T00:50:10.557Z,24.90
2022-08-04T00:55:34.564Z,24.50
2022-08-04T01:01:13.584Z,24.50
2022-08-04T01:06:30.557Z,24.60
2022-08-04T01:11:56.665Z,24.50
2022-08-04T01:17:33.524Z,24.50
2022-08-04T01:23:07.117Z,24.30
2022-08-04T01:28:29.173Z,24.20
2022-08-04T01:34:02.961Z,24.20
2022-08-04T01:38:58.074Z,24.10
2022-08-04T01:44:01.277Z,24.20
2022-08-04T01:49:03.898Z,24.00
2022-08-04T01:54:09.305Z,23.80
2022-08-04T01:59:15.483Z,24.10
2022-08-04T02:04:23.426Z,23.80
2022-08-04T02:09:54.084Z,23.60
2022-08-04T02:15:03.833Z,23.80
2022-08-04T02:20:12.124Z,23.50
2022-08-04T02:25:22.115Z,23.60
2022-08-04T02:30:33.097Z,23.50
2022-08-04T02:35:38.497Z,23.40
2022-08-04T02:40:42.493Z,23.40
2022-08-04T02:45:47.966Z,23.20
2022-08-04T02:50:52.189Z,23.30
2022-08-04T02:56:00.673Z,23.30
2022-08-04T03:01:04.666Z,23.10
2022-08-04T03:06:38.279Z,23.20
2022-08-04T03:12:02.211Z,22.90
2022-08-04T03:17:53.281Z,23.60
2022-08-04T03:23:23.816Z,23.10
2022-08-04T03:28:35.321Z,23.00
2022-08-04T03:34:09.527Z,22.90
2022-08-04T03:39:26.763Z,22.80
2022-08-04T03:44:44.680Z,22.70
2022-08-04T03:50:05.566Z,22.70
2022-08-04T03:55:38.689Z,22.70
2022-08-04T04:00:58.104Z,22.90
2022-08-04T04:06:19.154Z,22.50
2022-08-04T04:11:55.390Z,22.60
2022-08-04T04:17:15.171Z,22.60
2022-08-04T04:22:48.115Z,22.40
2022-08-04T04:27:50.500Z,22.70
2022-08-04T04:33:03.386Z,22.60
2022-08-04T04:38:43.197Z,22.50
2022-08-04T04:44:20.591Z,22.40
2022-08-04T04:49:39.310Z,22.40
2022-08-04T04:54:53.171Z,22.50
2022-08-04T05:00:16.070Z,22.50
2022-08-04T05:05:21.434Z,22.50
2022-08-04T05:11:18.878Z,22.20
2022-08-04T05:16:39.831Z,22.60
2022-08-04T05:21:48.355Z,22.50
2022-08-04T05:26:55.129Z,22.60
2022-08-04T05:31:59.538Z,22.60
2022-08-04T05:37:11.163Z,22.90
2022-08-04T05:42:14.639Z,22.90
2022-08-04T05:47:18.452Z,23.00
2022-08-04T05:52:21.773Z,23.40
2022-08-04T05:57:25.996Z,23.60
2022-08-04T06:02:30.395Z,23.60
2022-08-04T06:07:32.637Z,23.70
2022-08-04T06:12:47.493Z,24.40
2022-08-04T06:19:57.315Z,24.30
2022-08-04T06:23:23.433Z,24.60
2022-08-04T06:28:27.882Z,25.00
2022-08-04T06:33:33.707Z,25.40
2022-08-04T06:38:58.283Z,26.30
2022-08-04T06:44:05.150Z,26.30
2022-08-04T06:49:08.350Z,27.10
2022-08-04T06:54:10.549Z,27.10
2022-08-04T06:59:14.160Z,27.50
2022-08-04T07:04:16.533Z,27.90
2022-08-04T07:09:19.109Z,28.10
2022-08-04T07:14:22.534Z,28.50
2022-08-04T07:19:24.923Z,28.70
2022-08-04T07:24:35.620Z,28.80
2022-08-04T07:29:38.772Z,29.20
2022-08-04T07:34:42.875Z,29.40
2022-08-04T07:39:52.213Z,29.60
2022-08-04T07:44:54.550Z,29.80
2022-08-04T07:49:58.112Z,29.70
2022-08-04T07:55:00.967Z,30.10
2022-08-04T08:00:05.725Z,30.20
2022-08-04T08:05:16.948Z,30.40
2022-08-04T08:10:19.193Z,30.60
2022-08-04T08:15:22.493Z,30.80
2022-08-04T08:20:29.047Z,31.00
2022-08-04T08:25:33.741Z,31.20
2022-08-04T08:30:36.918Z,31.40
2022-08-04T08:35:55.033Z,31.60
2022-08-04T08:41:09.715Z,31.90
2022-08-04T08:46:49.654Z,32.10
2022-08-04T08:53:01.244Z,32.50
2022-08-04T08:58:16.051Z,32.50
2022-08-04T09:03:27.270Z,32.80
2022-08-04T09:08:41.280Z,33.00
2022-08-04T09:14:25.305Z,33.10
2022-08-04T09:19:38.287Z,33.30
2022-08-04T09:25:18.593Z,33.50
2022-08-04T09:30:31.559Z,33.60
2022-08-04T09:35:47.121Z,33.80
2022-08-04T09:41:07.390Z,34.00
2022-08-04T09:46:37.022Z,34.20
2022-08-04T09:51:57.547Z,34.40
2022-08-04T09:57:26.704Z,34.60
2022-08-04T10:09:14.360Z,35.00
2022-08-04T10:14:29.020Z,35.20
2022-08-04T10:19:38.243Z,35.30
2022-08-04T10:26:03.531Z,35.50
2022-08-04T10:30:34.012Z,35.70
2022-08-04T10:36:04.343Z,36.00
2022-08-04T10:41:11.348Z,36.20
2022-08-04T10:46:37.505Z,36.40
2022-08-04T10:51:58.058Z,36.60
2022-08-04T10:57:10.629Z,36.80
2022-08-04T11:02:34.458Z,37.00
2022-08-04T11:07:39.224Z,37.30
2022-08-04T11:12:44.147Z,37.50
2022-08-04T11:18:16.453Z,37.70
2022-08-04T11:23:24.039Z,37.90
2022-08-04T11:28:38.294Z,38.10
2022-08-04T11:34:04.822Z,38.40
2022-08-04T11:39:24.493Z,38.70
2022-08-04T11:44:48.976Z,38.90
2022-08-04T11:50:34.711Z,39.10
2022-08-04T11:56:09.416Z,39.50
2022-08-04T12:01:36.028Z,39.80
2022-08-04T12:07:04.505Z,40.20
2022-08-04T12:12:30.856Z,40.50
2022-08-04T12:17:53.418Z,40.70
2022-08-04T12:22:56.284Z,41.00
2022-08-04T12:28:17.334Z,41.20
2022-08-04T12:34:03.093Z,41.40
2022-08-04T12:39:29.662Z,41.70
2022-08-04T12:44:38.278Z,41.80
2022-08-04T12:49:47.529Z,42.00
2022-08-04T12:55:05.583Z,42.20
2022-08-04T13:00:09.608Z,42.40
2022-08-04T13:05:16.775Z,42.50
2022-08-04T13:10:30.531Z,42.70
2022-08-04T13:15:33.546Z,43.00
2022-08-04T13:20:49.908Z,43.40
2022-08-04T13:26:44.709Z,43.70
2022-08-04T13:31:21.884Z,44.00
2022-08-04T13:36:26.028Z,44.40
2022-08-04T13:41:31.201Z,44.50
2022-08-04T13:46:40.551Z,44.50
2022-08-04T13:51:57.499Z,44.70
2022-08-04T13:57:02.627Z,45.10
2022-08-04T14:02:10.045Z,45.40
2022-08-04T14:07:16.117Z,45.70
2022-08-04T14:12:38.418Z,46.20
2022-08-04T14:17:47.245Z,46.70
2022-08-04T14:22:49.425Z,47.30
2022-08-04T14:27:57.225Z,47.80
2022-08-04T14:34:00.696Z,48.20
2022-08-04T14:38:42.864Z,48.80
2022-08-04T14:43:46.410Z,49.40
2022-08-04T14:49:10.403Z,49.90
2022-08-04T14:54:18.573Z,50.40
2022-08-04T14:59:22.104Z,50.80
2022-08-04T15:04:26.051Z,51.30
2022-08-04T15:09:28.833Z,51.60
2022-08-04T15:14:37.507Z,52.00
2022-08-04T15:19:40.719Z,52.30
2022-08-04T15:24:58.285Z,52.70
2022-08-04T15:30:04.924Z,53.10
2022-08-04T15:35:12.971Z,53.30
2022-08-04T15:40:33.071Z,53.60
2022-08-04T15:46:02.383Z,53.90
2022-08-04T15:51:30.462Z,54.10
2022-08-04T15:56:34.943Z,54.30
2022-08-04T16:01:37.135Z,54.30
2022-08-04T16:06:39.270Z,54.30
2022-08-04T16:11:41.444Z,54.40
2022-08-04T16:16:44.995Z,54.30
2022-08-04T16:21:50.085Z,54.10
2022-08-04T16:26:57.711Z,54.00
2022-08-04T16:32:06.091Z,53.60
2022-08-04T16:37:13.204Z,52.80
2022-08-04T16:42:30.664Z,52.00
2022-08-04T16:47:48.087Z,50.80
2022-08-04T16:52:53.329Z,49.40
2022-08-04T16:58:01.150Z,48.10
2022-08-04T17:03:05.532Z,47.00
2022-08-04T17:14:02.816Z,44.90
2022-08-04T17:18:57.752Z,43.90
2022-08-04T17:24:12.599Z,43.00
2022-08-04T17:29:19.728Z,42.20
2022-08-04T17:34:26.428Z,41.40
2022-08-04T17:39:34.834Z,40.70
2022-08-04T17:44:40.479Z,40.10
2022-08-04T17:49:44.494Z,39.60
2022-08-04T17:55:02.790Z,39.10
2022-08-04T18:00:05.923Z,38.60
2022-08-04T18:05:12.338Z,38.10
2022-08-04T18:10:31.091Z,37.70
2022-08-04T18:15:44.469Z,37.30
2022-08-04T18:20:50.149Z,36.90
2022-08-04T18:26:23.635Z,36.60
2022-08-04T18:31:27.763Z,36.30
2022-08-04T18:36:34.250Z,36.00
2022-08-04T18:42:00.754Z,35.80
2022-08-04T18:47:19.148Z,35.50
2022-08-04T18:52:23.974Z,35.10
2022-08-04T18:57:58.405Z,35.00
2022-08-04T19:02:51.602Z,34.80
2022-08-04T19:08:11.206Z,34.50
2022-08-04T19:13:25.091Z,34.40
2022-08-04T19:18:31.025Z,34.20
2022-08-04T19:24:28.102Z,34.00
2022-08-04T19:28:56.458Z,33.90
2022-08-04T19:39:21.564Z,33.60
2022-08-04T19:44:24.126Z,33.50
2022-08-04T19:50:05.406Z,33.40
2022-08-04T19:54:49.401Z,33.30
2022-08-04T19:59:51.631Z,33.20
2022-08-04T20:04:57.397Z,33.10
2022-08-04T20:10:00.159Z,33.00
2022-08-04T20:15:07.712Z,32.80
2022-08-04T20:20:15.152Z,32.80
2022-08-04T20:25:27.419Z,32.60
2022-08-04T20:30:38.439Z,32.50
2022-08-04T20:35:45.974Z,32.30
2022-08-04T20:41:07.158Z,32.20
2022-08-04T20:46:18.112Z,32.10
2022-08-04T20:51:33.459Z,32.00
2022-08-04T20:56:36.552Z,31.90
2022-08-04T21:01:38.801Z,31.80
2022-08-04T21:06:41.072Z,31.70
2022-08-04T21:11:52.824Z,31.60
2022-08-04T21:16:57.892Z,31.50
2022-08-04T21:22:01.312Z,31.40
2022-08-04T21:27:06.269Z,31.30
2022-08-04T21:32:11.985Z,31.20
2022-08-04T21:37:16.355Z,31.10
2022-08-04T21:42:28.650Z,31.00
2022-08-04T21:47:45.962Z,30.90
2022-08-04T21:52:49.799Z,30.80
2022-08-04T21:57:54.098Z,30.80
2022-08-04T22:02:57.457Z,30.70
2022-08-04T22:07:59.648Z,30.60
2022-08-04T22:13:07.126Z,30.50
2022-08-04T22:18:10.035Z,30.40
2022-08-04T22:23:16.805Z,30.30
2022-08-04T22:28:21.621Z,30.30
2022-08-04T22:33:54.615Z,30.20
2022-08-04T22:38:56.833Z,30.10
2022-08-04T22:44:13.527Z,30.00
2022-08-04T22:49:17.585Z,29.90
2022-08-04T22:54:29.587Z,29.80
2022-08-04T22:59:34.119Z,29.70
2022-08-04T23:04:36.327Z,29.70
2022-08-04T23:09:51.105Z,29.30
2022-08-04T23:14:57.481Z,29.70
2022-08-04T23:20:00.339Z,29.80
2022-08-04T23:25:03.897Z,29.80
2022-08-04T23:30:07.050Z,30.00
2022-08-04T23:35:10.193Z,30.10
2022-08-04T23:40:33.673Z,30.10
2022-08-04T23:46:04.169Z,30.20
2022-08-04T23:51:13.682Z,30.10
2022-08-04T23:56:19.675Z,30.30
